Athensville, Illinois
Current Conditions -  °F | °C
As of 5:35 PM on Saturday 25 Oct 2014 (Local Time) from KIJX Reporting Station
Clear Clear  
Wind Chill: 25°   Ceiling: Unl
Heat Index: 25°   Visibility: 10mi
Dew Point:   Wind: 5mph
Humidity: 36%   Direction: 290°WNW
Pressure: 30.01"   Gusts: NA
Location:  39.491°N, 90.2996°W
Report Text: KIJX 252235Z AUTO 29004KT 10SM CLR 25/08 A3001 RMK AO2 T02460084
Loading
Personal Weather Stations






























Interactive Weather Map
Tropical Storm Tracking
New forecast layout! Learn more

10-Day Weather Forecast

Advertisements
Track Severe Weather on mobile